sensor_id;sensor_type;location;lat;lon;timestamp;pressure;altitude;pressure_sealevel;temperature;humidity
59419;BME280;45224;50.904;6.038;2023-02-17T00:01:00;100318.59;;;9.45;100.00
59419;BME280;45224;50.904;6.038;2023-02-17T00:02:30;100319.53;;;9.50;100.00
59419;BME280;45224;50.904;6.038;2023-02-17T00:04:01;100320.25;;;9.41;100.00
59419;BME280;45224;50.904;6.038;2023-02-17T00:05:31;100323.84;;;9.53;100.00
59419;BME280;45224;50.904;6.038;2023-02-17T00:07:02;100333.25;;;9.49;100.00
59419;BME280;45224;50.904;6.038;2023-02-17T00:08:32;100331.59;;;9.54;100.00
59419;BME280;45224;50.904;6.038;2023-02-17T00:10:04;100326.41;;;9.53;100.00
59419;BME280;45224;50.904;6.038;2023-02-17T00:11:34;100325.56;;;9.52;100.00
59419;BME280;45224;50.904;6.038;2023-02-17T00:13:05;100326.38;;;9.48;100.00
59419;BME280;45224;50.904;6.038;2023-02-17T00:14:38;100327.41;;;9.62;100.00
59419;BME280;45224;50.904;6.038;2023-02-17T00:16:17;100322.19;;;9.56;100.00
59419;BME280;45224;50.904;6.038;2023-02-17T00:17:48;100322.19;;;9.56;100.00
59419;BME280;45224;50.904;6.038;2023-02-17T00:19:18;100316.22;;;9.62;100.00
59419;BME280;45224;50.904;6.038;2023-02-17T00:20:55;100317.06;;;9.62;100.00
59419;BME280;45224;50.904;6.038;2023-02-17T00:22:26;100302.41;;;9.57;100.00
59419;BME280;45224;50.904;6.038;2023-02-17T00:23:57;100316.25;;;9.63;100.00
59419;BME280;45224;50.904;6.038;2023-02-17T00:25:28;100315.31;;;9.58;100.00
59419;BME280;45224;50.904;6.038;2023-02-17T00:26:59;100311.84;;;9.56;100.00
59419;BME280;45224;50.904;6.038;2023-02-17T00:28:29;100305.94;;;9.66;100.00
59419;BME280;45224;50.904;6.038;2023-02-17T00:30:00;100310.25;;;9.64;100.00
59419;BME280;45224;50.904;6.038;2023-02-17T00:31:31;100315.28;;;9.57;100.00
59419;BME280;45224;50.904;6.038;2023-02-17T00:33:02;100311.97;;;9.67;100.00
59419;BME280;45224;50.904;6.038;2023-02-17T00:34:33;100326.63;;;9.68;100.00
59419;BME280;45224;50.904;6.038;2023-02-17T00:36:05;100324.13;;;9.74;100.00
59419;BME280;45224;50.904;6.038;2023-02-17T00:37:36;100322.34;;;9.72;100.00
59419;BME280;45224;50.904;6.038;2023-02-17T00:39:07;100314.59;;;9.72;100.00
59419;BME280;45224;50.904;6.038;2023-02-17T00:40:37;100315.34;;;9.61;100.00
59419;BME280;45224;50.904;6.038;2023-02-17T00:42:08;100316.19;;;9.60;100.00
59419;BME280;45224;50.904;6.038;2023-02-17T00:43:38;100301.66;;;9.68;100.00
59419;BME280;45224;50.904;6.038;2023-02-17T00:45:09;100310.13;;;9.55;100.00
59419;BME280;45224;50.904;6.038;2023-02-17T00:46:39;100321.31;;;9.57;100.00
59419;BME280;45224;50.904;6.038;2023-02-17T00:48:10;100306.75;;;9.59;100.00
59419;BME280;45224;50.904;6.038;2023-02-17T00:49:41;100317.16;;;9.68;100.00
59419;BME280;45224;50.904;6.038;2023-02-17T00:51:13;100309.41;;;9.68;100.00
59419;BME280;45224;50.904;6.038;2023-02-17T00:52:44;100308.66;;;9.76;100.00
59419;BME280;45224;50.904;6.038;2023-02-17T00:54:14;100307.75;;;9.74;100.00
59419;BME280;45224;50.904;6.038;2023-02-17T00:55:45;100287.13;;;9.78;100.00
59419;BME280;45224;50.904;6.038;2023-02-17T00:57:16;100303.47;;;9.76;100.00
59419;BME280;45224;50.904;6.038;2023-02-17T00:58:46;100305.28;;;9.83;100.00
59419;BME280;45224;50.904;6.038;2023-02-17T01:00:17;100303.53;;;9.79;100.00
59419;BME280;45224;50.904;6.038;2023-02-17T01:01:48;100294.94;;;9.83;100.00
59419;BME280;45224;50.904;6.038;2023-02-17T01:03:18;100288.88;;;9.79;100.00
59419;BME280;45224;50.904;6.038;2023-02-17T01:04:49;100294.84;;;9.74;100.00
59419;BME280;45224;50.904;6.038;2023-02-17T01:06:25;100270.63;;;9.65;100.00
59419;BME280;45224;50.904;6.038;2023-02-17T01:07:56;100279.25;;;9.64;100.00
59419;BME280;45224;50.904;6.038;2023-02-17T01:09:27;100295.63;;;9.68;100.00
59419;BME280;45224;50.904;6.038;2023-02-17T01:10:57;100282.75;;;9.69;100.00
59419;BME280;45224;50.904;6.038;2023-02-17T01:12:28;100272.38;;;9.66;100.00
59419;BME280;45224;50.904;6.038;2023-02-17T01:13:59;100279.34;;;9.74;100.00
59419;BME280;45224;50.904;6.038;2023-02-17T01:15:30;100263.00;;;9.73;100.00
59419;BME280;45224;50.904;6.038;2023-02-17T01:17:02;100262.13;;;9.73;100.00
59419;BME280;45224;50.904;6.038;2023-02-17T01:18:32;100250.00;;;9.65;100.00
59419;BME280;45224;50.904;6.038;2023-02-17T01:20:03;100269.91;;;9.76;100.00
59419;BME280;45224;50.904;6.038;2023-02-17T01:21:34;100261.22;;;9.67;100.00
59419;BME280;45224;50.904;6.038;2023-02-17T01:23:07;100257.81;;;9.72;100.00
59419;BME280;45224;50.904;6.038;2023-02-17T01:24:38;100265.56;;;9.72;100.00
59419;BME280;45224;50.904;6.038;2023-02-17T01:26:12;100261.25;;;9.69;100.00
59419;BME280;45224;50.904;6.038;2023-02-17T01:27:43;100263.88;;;9.77;100.00
59419;BME280;45224;50.904;6.038;2023-02-17T01:29:13;100250.06;;;9.72;100.00
59419;BME280;45224;50.904;6.038;2023-02-17T01:30:48;100258.69;;;9.74;100.00
59419;BME280;45224;50.904;6.038;2023-02-17T01:32:18;100255.25;;;9.75;100.00
59419;BME280;45224;50.904;6.038;2023-02-17T01:33:50;100258.78;;;9.83;100.00
59419;BME280;45224;50.904;6.038;2023-02-17T01:35:21;100258.72;;;9.77;100.00
59419;BME280;45224;50.904;6.038;2023-02-17T01:36:51;100250.09;;;9.75;100.00
59419;BME280;45224;50.904;6.038;2023-02-17T01:38:22;100249.25;;;9.76;100.00
59419;BME280;45224;50.904;6.038;2023-02-17T01:39:52;100245.03;;;9.84;100.00
59419;BME280;45224;50.904;6.038;2023-02-17T01:41:25;100252.75;;;9.81;100.00
59419;BME280;45224;50.904;6.038;2023-02-17T01:42:58;100250.28;;;9.90;100.00
59419;BME280;45224;50.904;6.038;2023-02-17T01:44:32;100239.03;;;9.88;100.00
59419;BME280;45224;50.904;6.038;2023-02-17T01:46:04;100239.00;;;9.82;100.00
59419;BME280;45224;50.904;6.038;2023-02-17T01:47:35;100235.41;;;9.67;100.00
59419;BME280;45224;50.904;6.038;2023-02-17T01:51:05;100235.63;;;9.89;100.00
59419;BME280;45224;50.904;6.038;2023-02-17T01:52:39;100231.25;;;9.82;100.00
59419;BME280;45224;50.904;6.038;2023-02-17T01:54:14;100232.03;;;9.75;100.00
59419;BME280;45224;50.904;6.038;2023-02-17T01:55:47;100227.75;;;9.80;100.00
59419;BME280;45224;50.904;6.038;2023-02-17T01:57:21;100226.16;;;9.91;100.00
59419;BME280;45224;50.904;6.038;2023-02-17T01:59:02;100229.50;;;9.81;100.00
59419;BME280;45224;50.904;6.038;2023-02-17T02:00:35;100239.13;;;9.97;100.00
59419;BME280;45224;50.904;6.038;2023-02-17T02:02:06;100229.63;;;9.93;100.00
59419;BME280;45224;50.904;6.038;2023-02-17T02:03:38;100221.03;;;9.94;100.00
59419;BME280;45224;50.904;6.038;2023-02-17T02:05:10;100231.38;;;9.97;100.00
59419;BME280;45224;50.904;6.038;2023-02-17T02:06:42;100223.53;;;9.88;100.00
59419;BME280;45224;50.904;6.038;2023-02-17T02:08:13;100215.81;;;9.91;100.00
59419;BME280;45224;50.904;6.038;2023-02-17T02:09:55;100226.19;;;9.94;100.00
59419;BME280;45224;50.904;6.038;2023-02-17T02:11:26;100207.16;;;9.86;100.00
59419;BME280;45224;50.904;6.038;2023-02-17T02:12:56;100226.22;;;9.97;100.00
59419;BME280;45224;50.904;6.038;2023-02-17T02:14:27;100212.50;;;10.01;100.00
59419;BME280;45224;50.904;6.038;2023-02-17T02:16:13;100222.81;;;10.01;100.00
59419;BME280;45224;50.904;6.038;2023-02-17T02:27:44;100221.00;;;9.91;100.00
59419;BME280;45224;50.904;6.038;2023-02-17T02:29:29;100215.91;;;9.99;100.00
59419;BME280;45224;50.904;6.038;2023-02-17T02:32:38;100200.31;;;9.91;100.00
59419;BME280;45224;50.904;6.038;2023-02-17T02:34:26;100215.00;;;9.94;100.00
59419;BME280;45224;50.904;6.038;2023-02-17T02:36:08;100207.97;;;9.79;100.00
59419;BME280;45224;50.904;6.038;2023-02-17T02:37:52;100214.00;;;9.81;100.00
59419;BME280;45224;50.904;6.038;2023-02-17T02:39:28;100201.16;;;9.87;100.00
59419;BME280;45224;50.904;6.038;2023-02-17T02:41:27;100202.06;;;9.92;100.00
59419;BME280;45224;50.904;6.038;2023-02-17T02:43:00;100188.19;;;9.81;100.00
59419;BME280;45224;50.904;6.038;2023-02-17T02:44:31;100202.09;;;9.95;100.00
59419;BME280;45224;50.904;6.038;2023-02-17T02:46:02;100196.06;;;9.96;100.00
59419;BME280;45224;50.904;6.038;2023-02-17T02:47:54;100206.41;;;9.96;100.00
59419;BME280;45224;50.904;6.038;2023-02-17T02:49:30;100212.47;;;9.98;100.00
59419;BME280;45224;50.904;6.038;2023-02-17T03:01:52;100208.13;;;9.97;100.00
59419;BME280;45224;50.904;6.038;2023-02-17T03:03:40;100198.69;;;9.99;100.00
59419;BME280;45224;50.904;6.038;2023-02-17T03:05:36;100204.75;;;10.03;100.00
59419;BME280;45224;50.904;6.038;2023-02-17T03:07:34;100212.44;;;9.95;100.00
59419;BME280;45224;50.904;6.038;2023-02-17T03:09:11;100209.09;;;10.09;100.00
59419;BME280;45224;50.904;6.038;2023-02-17T03:10:45;100214.22;;;10.05;100.00
59419;BME280;45224;50.904;6.038;2023-02-17T03:12:17;100205.66;;;10.10;100.00
59419;BME280;45224;50.904;6.038;2023-02-17T03:13:48;100203.94;;;10.09;100.00
59419;BME280;45224;50.904;6.038;2023-02-17T03:15:24;100211.56;;;9.96;100.00
59419;BME280;45224;50.904;6.038;2023-02-17T03:16:56;100204.78;;;10.04;100.00
59419;BME280;45224;50.904;6.038;2023-02-17T03:18:34;100203.94;;;10.09;100.00
59419;BME280;45224;50.904;6.038;2023-02-17T03:20:05;100191.84;;;10.04;100.00
59419;BME280;45224;50.904;6.038;2023-02-17T03:21:47;100207.34;;;10.03;100.00
59419;BME280;45224;50.904;6.038;2023-02-17T03:23:19;100208.25;;;10.10;100.00
59419;BME280;45224;50.904;6.038;2023-02-17T03:24:50;100201.38;;;10.12;100.00
59419;BME280;45224;50.904;6.038;2023-02-17T03:26:21;100201.44;;;10.18;99.67
59419;BME280;45224;50.904;6.038;2023-02-17T03:27:51;100193.59;;;10.09;100.00
59419;BME280;45224;50.904;6.038;2023-02-17T03:29:22;100191.88;;;10.11;100.00
59419;BME280;45224;50.904;6.038;2023-02-17T03:30:53;100182.50;;;10.17;100.00
59419;BME280;45224;50.904;6.038;2023-02-17T03:32:24;100183.28;;;10.12;100.00
59419;BME280;45224;50.904;6.038;2023-02-17T03:33:55;100178.16;;;10.15;100.00
59419;BME280;45224;50.904;6.038;2023-02-17T03:35:25;100184.16;;;10.15;100.00
59419;BME280;45224;50.904;6.038;2023-02-17T03:36:56;100175.56;;;10.15;99.85
59419;BME280;45224;50.904;6.038;2023-02-17T03:38:27;100170.34;;;10.07;100.00
59419;BME280;45224;50.904;6.038;2023-02-17T03:39:57;100166.91;;;10.10;100.00
59419;BME280;45224;50.904;6.038;2023-02-17T03:41:28;100174.72;;;10.19;100.00
59419;BME280;45224;50.904;6.038;2023-02-17T03:42:58;100172.06;;;10.08;100.00
59419;BME280;45224;50.904;6.038;2023-02-17T03:44:29;100182.31;;;9.99;100.00
59419;BME280;45224;50.904;6.038;2023-02-17T03:46:00;100174.63;;;10.03;100.00
59419;BME280;45224;50.904;6.038;2023-02-17T03:47:30;100177.28;;;10.13;100.00
59419;BME280;45224;50.904;6.038;2023-02-17T03:49:01;100171.22;;;10.11;100.00
59419;BME280;45224;50.904;6.038;2023-02-17T03:50:31;100174.66;;;10.10;100.00
59419;BME280;45224;50.904;6.038;2023-02-17T03:52:02;100173.84;;;10.17;100.00
59419;BME280;45224;50.904;6.038;2023-02-17T03:53:33;100173.81;;;10.12;99.75
59419;BME280;45224;50.904;6.038;2023-02-17T03:55:03;100183.31;;;10.15;99.55
59419;BME280;45224;50.904;6.038;2023-02-17T03:56:34;100172.91;;;10.05;100.00
59419;BME280;45224;50.904;6.038;2023-02-17T03:58:05;100179.00;;;10.14;100.00
59419;BME280;45224;50.904;6.038;2023-02-17T03:59:35;100169.56;;;10.22;99.55
59419;BME280;45224;50.904;6.038;2023-02-17T04:01:07;100173.00;;;10.18;99.46
59419;BME280;45224;50.904;6.038;2023-02-17T04:02:38;100161.81;;;10.22;99.23
59419;BME280;45224;50.904;6.038;2023-02-17T04:04:09;100161.81;;;10.17;99.45
59419;BME280;45224;50.904;6.038;2023-02-17T04:05:39;100165.22;;;10.13;99.47
59419;BME280;45224;50.904;6.038;2023-02-17T04:07:10;100174.69;;;10.13;99.58
59419;BME280;45224;50.904;6.038;2023-02-17T04:08:40;100173.00;;;10.18;99.25
59419;BME280;45224;50.904;6.038;2023-02-17T04:10:11;100163.47;;;10.12;99.22
59419;BME280;45224;50.904;6.038;2023-02-17T04:11:42;100158.34;;;10.15;99.57
59419;BME280;45224;50.904;6.038;2023-02-17T04:13:13;100170.44;;;10.18;99.05
59419;BME280;45224;50.904;6.038;2023-02-17T04:14:43;100195.31;;;10.07;99.02
59419;BME280;45224;50.904;6.038;2023-02-17T04:16:14;100185.72;;;9.96;100.00
59419;BME280;45224;50.904;6.038;2023-02-17T04:17:44;100189.25;;;10.01;99.89
59419;BME280;45224;50.904;6.038;2023-02-17T04:19:15;100184.91;;;9.99;99.98
59419;BME280;45224;50.904;6.038;2023-02-17T04:20:48;100187.56;;;10.07;99.48
59419;BME280;45224;50.904;6.038;2023-02-17T04:22:19;100188.44;;;10.09;99.52
59419;BME280;45224;50.904;6.038;2023-02-17T04:23:49;100193.50;;;9.99;99.58
59419;BME280;45224;50.904;6.038;2023-02-17T04:25:20;100198.72;;;10.05;99.45
59419;BME280;45224;50.904;6.038;2023-02-17T04:26:50;100193.53;;;10.02;99.43
59419;BME280;45224;50.904;6.038;2023-02-17T04:28:21;100190.94;;;9.99;99.54
59419;BME280;45224;50.904;6.038;2023-02-17T04:29:51;100179.84;;;10.10;99.37
59419;BME280;45224;50.904;6.038;2023-02-17T04:31:22;100181.44;;;9.95;99.71
59419;BME280;45224;50.904;6.038;2023-02-17T04:32:53;100174.59;;;10.00;99.73
59419;BME280;45224;50.904;6.038;2023-02-17T04:34:24;100179.81;;;10.07;99.12
59419;BME280;45224;50.904;6.038;2023-02-17T04:35:54;100180.63;;;10.04;99.54
59419;BME280;45224;50.904;6.038;2023-02-17T04:37:28;100184.81;;;9.91;99.43
59419;BME280;45224;50.904;6.038;2023-02-17T04:38:59;100177.16;;;9.99;99.75
59419;BME280;45224;50.904;6.038;2023-02-17T04:40:29;100178.00;;;9.99;99.76
59419;BME280;45224;50.904;6.038;2023-02-17T04:42:00;100176.34;;;10.04;99.18
59419;BME280;45224;50.904;6.038;2023-02-17T04:43:31;100179.81;;;10.07;98.83
59419;BME280;45224;50.904;6.038;2023-02-17T04:45:03;100189.25;;;10.03;98.98
59419;BME280;45224;50.904;6.038;2023-02-17T04:46:34;100180.69;;;10.09;99.07
59419;BME280;45224;50.904;6.038;2023-02-17T04:48:04;100185.06;;;10.16;98.59
59419;BME280;45224;50.904;6.038;2023-02-17T04:49:35;100188.34;;;9.99;99.45
59419;BME280;45224;50.904;6.038;2023-02-17T04:51:05;100178.94;;;10.04;99.12
59419;BME280;45224;50.904;6.038;2023-02-17T04:52:36;100195.41;;;10.16;98.90
59419;BME280;45224;50.904;6.038;2023-02-17T04:54:06;100204.84;;;10.17;98.56
59419;BME280;45224;50.904;6.038;2023-02-17T04:55:37;100203.94;;;10.09;99.23
59419;BME280;45224;50.904;6.038;2023-02-17T04:57:07;100209.16;;;10.15;98.91
59419;BME280;45224;50.904;6.038;2023-02-17T04:58:38;100214.34;;;10.18;98.19
59419;BME280;45224;50.904;6.038;2023-02-17T05:00:09;100206.56;;;10.15;98.59
59419;BME280;45224;50.904;6.038;2023-02-17T05:01:39;100194.47;;;10.06;99.04
59419;BME280;45224;50.904;6.038;2023-02-17T05:03:10;100203.16;;;10.19;98.57
59419;BME280;45224;50.904;6.038;2023-02-17T05:04:40;100204.00;;;10.16;98.17
59419;BME280;45224;50.904;6.038;2023-02-17T05:06:11;100203.13;;;10.13;98.88
59419;BME280;45224;50.904;6.038;2023-02-17T05:07:41;100193.66;;;10.15;98.44
59419;BME280;45224;50.904;6.038;2023-02-17T05:09:12;100197.03;;;10.04;98.79
59419;BME280;45224;50.904;6.038;2023-02-17T05:10:42;100191.91;;;10.14;98.92
59419;BME280;45224;50.904;6.038;2023-02-17T05:12:13;100199.63;;;10.11;99.16
59419;BME280;45224;50.904;6.038;2023-02-17T05:13:43;100191.88;;;10.11;98.97
59419;BME280;45224;50.904;6.038;2023-02-17T05:15:14;100186.69;;;10.08;99.01
59419;BME280;45224;50.904;6.038;2023-02-17T05:16:45;100197.06;;;10.14;98.83
59419;BME280;45224;50.904;6.038;2023-02-17T05:18:15;100191.97;;;10.20;98.41
59419;BME280;45224;50.904;6.038;2023-02-17T05:19:46;100206.63;;;10.21;98.30
59419;BME280;45224;50.904;6.038;2023-02-17T05:21:16;100200.56;;;10.19;98.05
59419;BME280;45224;50.904;6.038;2023-02-17T05:22:46;100196.34;;;10.27;98.00
59419;BME280;45224;50.904;6.038;2023-02-17T05:24:17;100193.72;;;10.21;97.91
59419;BME280;45224;50.904;6.038;2023-02-17T05:25:47;100199.72;;;10.20;97.92
59419;BME280;45224;50.904;6.038;2023-02-17T05:27:18;100198.91;;;10.24;97.69
59419;BME280;45224;50.904;6.038;2023-02-17T05:28:49;100203.16;;;10.22;97.80
59419;BME280;45224;50.904;6.038;2023-02-17T05:30:20;100198.91;;;10.24;97.91
59419;BME280;45224;50.904;6.038;2023-02-17T05:31:51;100195.41;;;10.22;98.49
59419;BME280;45224;50.904;6.038;2023-02-17T05:33:21;100190.16;;;10.07;98.92
59419;BME280;45224;50.904;6.038;2023-02-17T05:34:52;100189.34;;;10.15;98.60
59419;BME280;45224;50.904;6.038;2023-02-17T05:36:22;100179.88;;;10.13;99.28
59419;BME280;45224;50.904;6.038;2023-02-17T05:37:53;100160.94;;;10.17;99.22
59419;BME280;45224;50.904;6.038;2023-02-17T05:39:23;100181.63;;;10.20;98.45
59419;BME280;45224;50.904;6.038;2023-02-17T05:40:54;100163.56;;;10.23;98.80
59419;BME280;45224;50.904;6.038;2023-02-17T05:42:24;100183.28;;;10.12;99.28
59419;BME280;45224;50.904;6.038;2023-02-17T05:43:58;100161.78;;;10.14;99.33
59419;BME280;45224;50.904;6.038;2023-02-17T05:45:28;100171.25;;;10.14;99.31
59419;BME280;45224;50.904;6.038;2023-02-17T05:46:59;100163.47;;;10.12;99.55
59419;BME280;45224;50.904;6.038;2023-02-17T05:48:29;100173.91;;;10.23;98.86
59419;BME280;45224;50.904;6.038;2023-02-17T05:50:00;100179.81;;;10.07;99.80
59419;BME280;45224;50.904;6.038;2023-02-17T05:51:31;100174.66;;;10.07;100.00
59419;BME280;45224;50.904;6.038;2023-02-17T05:53:01;100174.66;;;10.10;100.00
59419;BME280;45224;50.904;6.038;2023-02-17T05:54:32;100173.81;;;10.12;100.00
59419;BME280;45224;50.904;6.038;2023-02-17T05:56:03;100177.28;;;10.14;100.00
59419;BME280;45224;50.904;6.038;2023-02-17T05:57:33;100176.47;;;10.21;99.47
59419;BME280;45224;50.904;6.038;2023-02-17T05:59:04;100171.25;;;10.14;100.00
59419;BME280;45224;50.904;6.038;2023-02-17T06:00:34;100185.06;;;10.16;100.00
59419;BME280;45224;50.904;6.038;2023-02-17T06:02:05;100178.16;;;10.15;100.00
59419;BME280;45224;50.904;6.038;2023-02-17T06:03:35;100181.50;;;10.01;100.00
59419;BME280;45224;50.904;6.038;2023-02-17T06:05:07;100181.59;;;10.17;100.00
59419;BME280;45224;50.904;6.038;2023-02-17T06:06:37;100190.94;;;10.01;100.00
59419;BME280;45224;50.904;6.038;2023-02-17T06:08:08;100195.38;;;10.13;100.00
59419;BME280;45224;50.904;6.038;2023-02-17T06:09:38;100190.13;;;10.03;100.00
59419;BME280;45224;50.904;6.038;2023-02-17T06:11:09;100187.59;;;10.10;100.00
59419;BME280;45224;50.904;6.038;2023-02-17T06:12:39;100182.44;;;10.11;100.00
59419;BME280;45224;50.904;6.038;2023-02-17T06:14:10;100193.66;;;10.15;100.00
59419;BME280;45224;50.904;6.038;2023-02-17T06:15:41;100197.94;;;10.11;100.00
59419;BME280;45224;50.904;6.038;2023-02-17T06:17:11;100195.41;;;10.16;100.00
59419;BME280;45224;50.904;6.038;2023-02-17T06:18:41;100204.03;;;10.21;100.00
59419;BME280;45224;50.904;6.038;2023-02-17T06:20:12;100188.53;;;10.21;100.00
59419;BME280;45224;50.904;6.038;2023-02-17T06:21:43;100201.34;;;10.07;100.00
59419;BME280;45224;50.904;6.038;2023-02-17T06:23:13;100196.25;;;10.16;100.00
59419;BME280;45224;50.904;6.038;2023-02-17T06:24:44;100185.06;;;10.20;100.00
59419;BME280;45224;50.904;6.038;2023-02-17T06:26:14;100191.06;;;10.13;100.00
59419;BME280;45224;50.904;6.038;2023-02-17T06:27:46;100197.94;;;10.13;100.00
59419;BME280;45224;50.904;6.038;2023-02-17T06:29:17;100197.13;;;10.20;100.00
59419;BME280;45224;50.904;6.038;2023-02-17T06:30:47;100206.63;;;10.21;100.00
59419;BME280;45224;50.904;6.038;2023-02-17T06:32:18;100192.03;;;10.26;100.00
59419;BME280;45224;50.904;6.038;2023-02-17T06:33:48;100194.59;;;10.26;100.00
59419;BME280;45224;50.904;6.038;2023-02-17T06:35:19;100193.75;;;10.27;100.00
59419;BME280;45224;50.904;6.038;2023-02-17T06:36:49;100204.03;;;10.21;100.00
59419;BME280;45224;50.904;6.038;2023-02-17T06:38:20;100198.88;;;10.21;100.00
59419;BME280;45224;50.904;6.038;2023-02-17T06:39:50;100186.78;;;10.20;100.00
59419;BME280;45224;50.904;6.038;2023-02-17T06:41:21;100191.13;;;10.22;100.00
59419;BME280;45224;50.904;6.038;2023-02-17T06:42:52;100185.06;;;10.19;100.00
59419;BME280;45224;50.904;6.038;2023-02-17T06:44:22;100186.84;;;10.26;100.00
59419;BME280;45224;50.904;6.038;2023-02-17T06:45:53;100188.53;;;10.21;100.00
59419;BME280;45224;50.904;6.038;2023-02-17T06:47:23;100198.00;;;10.23;100.00
59419;BME280;45224;50.904;6.038;2023-02-17T06:48:54;100202.34;;;10.23;100.00
59419;BME280;45224;50.904;6.038;2023-02-17T06:50:24;100205.78;;;10.25;100.00
59419;BME280;45224;50.904;6.038;2023-02-17T06:51:55;100200.63;;;10.25;100.00
59419;BME280;45224;50.904;6.038;2023-02-17T06:53:25;100198.94;;;10.27;100.00
59419;BME280;45224;50.904;6.038;2023-02-17T06:54:56;100201.47;;;10.22;100.00
59419;BME280;45224;50.904;6.038;2023-02-17T06:56:26;100194.53;;;10.18;100.00
59419;BME280;45224;50.904;6.038;2023-02-17T06:57:57;100191.03;;;10.12;100.00
59419;BME280;45224;50.904;6.038;2023-02-17T06:59:27;100194.50;;;10.14;100.00
59419;BME280;45224;50.904;6.038;2023-02-17T07:00:58;100191.13;;;10.21;100.00
59419;BME280;45224;50.904;6.038;2023-02-17T07:02:28;100186.69;;;10.04;100.00
59419;BME280;45224;50.904;6.038;2023-02-17T07:03:59;100193.59;;;10.09;100.00
59419;BME280;45224;50.904;6.038;2023-02-17T07:05:29;100187.56;;;10.07;100.00
59419;BME280;45224;50.904;6.038;2023-02-17T07:07:00;100193.59;;;10.09;100.00
59419;BME280;45224;50.904;6.038;2023-02-17T07:08:30;100190.16;;;10.08;100.00
59419;BME280;45224;50.904;6.038;2023-02-17T07:10:01;100189.25;;;10.01;100.00
59419;BME280;45224;50.904;6.038;2023-02-17T07:11:32;100191.88;;;10.11;100.00
59419;BME280;45224;50.904;6.038;2023-02-17T07:13:03;100203.94;;;10.10;100.00
59419;BME280;45224;50.904;6.038;2023-02-17T07:14:34;100197.03;;;10.08;100.00
59419;BME280;45224;50.904;6.038;2023-02-17T07:16:04;100206.50;;;10.09;100.00
59419;BME280;45224;50.904;6.038;2023-02-17T07:17:35;100196.19;;;10.10;100.00
59419;BME280;45224;50.904;6.038;2023-02-17T07:19:05;100196.16;;;10.07;100.00
59419;BME280;45224;50.904;6.038;2023-02-17T07:20:36;100189.28;;;10.09;100.00
59419;BME280;45224;50.904;6.038;2023-02-17T07:22:07;100193.66;;;10.15;100.00
59419;BME280;45224;50.904;6.038;2023-02-17T07:23:37;100197.94;;;10.11;100.00
59419;BME280;45224;50.904;6.038;2023-02-17T07:25:09;100191.84;;;10.08;100.00
59419;BME280;45224;50.904;6.038;2023-02-17T07:26:40;100206.56;;;10.13;100.00
59419;BME280;45224;50.904;6.038;2023-02-17T07:28:10;100197.88;;;10.03;100.00
59419;BME280;45224;50.904;6.038;2023-02-17T07:29:41;100201.38;;;10.12;100.00
59419;BME280;45224;50.904;6.038;2023-02-17T07:31:13;100203.91;;;10.05;100.00
59419;BME280;45224;50.904;6.038;2023-02-17T07:32:44;100205.69;;;10.13;100.00
59419;BME280;45224;50.904;6.038;2023-02-17T07:34:14;100209.06;;;10.05;100.00
59419;BME280;45224;50.904;6.038;2023-02-17T07:35:45;100205.66;;;10.07;100.00
59419;BME280;45224;50.904;6.038;2023-02-17T07:37:16;100216.91;;;10.16;100.00
59419;BME280;45224;50.904;6.038;2023-02-17T07:38:46;100217.78;;;10.17;100.00
59419;BME280;45224;50.904;6.038;2023-02-17T07:40:17;100208.31;;;10.17;100.00
59419;BME280;45224;50.904;6.038;2023-02-17T07:41:48;100200.56;;;10.14;100.00
59419;BME280;45224;50.904;6.038;2023-02-17T07:43:21;100216.06;;;10.19;100.00
59419;BME280;45224;50.904;6.038;2023-02-17T07:44:52;100210.91;;;10.19;100.00
59419;BME280;45224;50.904;6.038;2023-02-17T07:46:24;100205.72;;;10.19;100.00
59419;BME280;45224;50.904;6.038;2023-02-17T07:47:54;100210.91;;;10.22;100.00
59419;BME280;45224;50.904;6.038;2023-02-17T07:49:25;100206.56;;;10.15;100.00
59419;BME280;45224;50.904;6.038;2023-02-17T07:50:55;100204.91;;;10.23;100.00
59419;BME280;45224;50.904;6.038;2023-02-17T07:52:26;100202.28;;;10.18;100.00
59419;BME280;45224;50.904;6.038;2023-02-17T07:53:56;100205.81;;;10.28;100.00
59419;BME280;45224;50.904;6.038;2023-02-17T07:55:27;100210.06;;;10.21;100.00
59419;BME280;45224;50.904;6.038;2023-02-17T07:56:58;100222.19;;;10.32;100.00
59419;BME280;45224;50.904;6.038;2023-02-17T07:58:31;100219.72;;;10.41;100.00
59419;BME280;45224;50.904;6.038;2023-02-17T08:00:03;100211.91;;;10.33;100.00
59419;BME280;45224;50.904;6.038;2023-02-17T08:01:43;100216.25;;;10.37;100.00
59419;BME280;45224;50.904;6.038;2023-02-17T08:03:13;100224.81;;;10.33;100.00
59419;BME280;45224;50.904;6.038;2023-02-17T08:04:44;100220.56;;;10.35;100.00
59419;BME280;45224;50.904;6.038;2023-02-17T08:06:22;100228.28;;;10.32;100.00
59419;BME280;45224;50.904;6.038;2023-02-17T08:07:53;100225.69;;;10.32;100.00
59419;BME280;45224;50.904;6.038;2023-02-17T08:09:43;100216.28;;;10.40;100.00
59419;BME280;45224;50.904;6.038;2023-02-17T08:11:32;100222.38;;;10.47;100.00
59419;BME280;45224;50.904;6.038;2023-02-17T08:13:23;100212.06;;;10.53;100.00
59419;BME280;45224;50.904;6.038;2023-02-17T08:14:56;100207.78;;;10.57;100.00
59419;BME280;45224;50.904;6.038;2023-02-17T08:16:27;100213.78;;;10.50;100.00
59419;BME280;45224;50.904;6.038;2023-02-17T08:17:57;100193.91;;;10.46;100.00
59419;BME280;45224;50.904;6.038;2023-02-17T08:19:30;100201.75;;;10.56;100.00
59419;BME280;45224;50.904;6.038;2023-02-17T08:21:00;100208.69;;;10.64;100.00
59419;BME280;45224;50.904;6.038;2023-02-17T08:22:31;100221.63;;;10.65;100.00